sensor_id;sensor_type;location;lat;lon;timestamp;P1;durP1;ratioP1;P2;durP2;ratioP2
20669;SDS011;10494;50.868;4.180;2023-09-07T00:01:48;11.75;;;6.53;;
20669;SDS011;10494;50.868;4.180;2023-09-07T00:04:14;11.30;;;6.80;;
20669;SDS011;10494;50.868;4.180;2023-09-07T00:06:40;11.70;;;6.95;;
20669;SDS011;10494;50.868;4.180;2023-09-07T00:09:08;9.27;;;6.30;;
20669;SDS011;10494;50.868;4.180;2023-09-07T00:11:36;14.95;;;7.03;;
20669;SDS011;10494;50.868;4.180;2023-09-07T00:14:01;11.05;;;6.45;;
20669;SDS011;10494;50.868;4.180;2023-09-07T00:16:27;7.88;;;6.00;;
20669;SDS011;10494;50.868;4.180;2023-09-07T00:18:53;9.02;;;5.82;;
20669;SDS011;10494;50.868;4.180;2023-09-07T00:21:18;10.50;;;6.03;;
20669;SDS011;10494;50.868;4.180;2023-09-07T00:23:44;10.10;;;6.72;;
20669;SDS011;10494;50.868;4.180;2023-09-07T00:26:10;9.57;;;6.72;;
20669;SDS011;10494;50.868;4.180;2023-09-07T00:28:37;10.50;;;6.35;;
20669;SDS011;10494;50.868;4.180;2023-09-07T00:31:03;11.32;;;6.88;;
20669;SDS011;10494;50.868;4.180;2023-09-07T00:33:29;12.70;;;7.15;;
20669;SDS011;10494;50.868;4.180;2023-09-07T00:35:54;10.30;;;6.72;;
20669;SDS011;10494;50.868;4.180;2023-09-07T00:38:20;10.98;;;7.00;;
20669;SDS011;10494;50.868;4.180;2023-09-07T00:40:46;10.75;;;6.15;;
20669;SDS011;10494;50.868;4.180;2023-09-07T00:43:11;10.48;;;6.82;;
20669;SDS011;10494;50.868;4.180;2023-09-07T00:45:38;11.18;;;6.80;;
20669;SDS011;10494;50.868;4.180;2023-09-07T00:48:04;16.35;;;7.60;;
20669;SDS011;10494;50.868;4.180;2023-09-07T00:50:30;8.82;;;6.35;;
20669;SDS011;10494;50.868;4.180;2023-09-07T00:52:56;9.68;;;7.32;;
20669;SDS011;10494;50.868;4.180;2023-09-07T00:55:25;13.95;;;7.15;;
20669;SDS011;10494;50.868;4.180;2023-09-07T00:57:52;11.88;;;7.50;;
20669;SDS011;10494;50.868;4.180;2023-09-07T01:00:18;9.73;;;6.63;;
20669;SDS011;10494;50.868;4.180;2023-09-07T01:02:44;15.25;;;7.10;;
20669;SDS011;10494;50.868;4.180;2023-09-07T01:05:09;11.20;;;7.20;;
20669;SDS011;10494;50.868;4.180;2023-09-07T01:07:38;9.52;;;7.13;;
20669;SDS011;10494;50.868;4.180;2023-09-07T01:10:09;13.93;;;7.70;;
20669;SDS011;10494;50.868;4.180;2023-09-07T01:12:35;8.88;;;6.65;;
20669;SDS011;10494;50.868;4.180;2023-09-07T01:15:01;10.32;;;7.20;;
20669;SDS011;10494;50.868;4.180;2023-09-07T01:17:30;10.60;;;7.70;;
20669;SDS011;10494;50.868;4.180;2023-09-07T01:19:57;11.68;;;7.97;;
20669;SDS011;10494;50.868;4.180;2023-09-07T01:22:24;12.13;;;8.18;;
20669;SDS011;10494;50.868;4.180;2023-09-07T01:24:50;13.20;;;8.25;;
20669;SDS011;10494;50.868;4.180;2023-09-07T01:27:19;14.00;;;7.88;;
20669;SDS011;10494;50.868;4.180;2023-09-07T01:29:45;10.45;;;7.75;;
20669;SDS011;10494;50.868;4.180;2023-09-07T01:32:11;10.65;;;7.35;;
20669;SDS011;10494;50.868;4.180;2023-09-07T01:34:38;17.70;;;8.68;;
20669;SDS011;10494;50.868;4.180;2023-09-07T01:37:05;13.48;;;8.00;;
20669;SDS011;10494;50.868;4.180;2023-09-07T01:39:30;18.63;;;8.43;;
20669;SDS011;10494;50.868;4.180;2023-09-07T01:41:56;12.93;;;7.28;;
20669;SDS011;10494;50.868;4.180;2023-09-07T01:44:22;9.93;;;8.00;;
20669;SDS011;10494;50.868;4.180;2023-09-07T01:46:47;11.68;;;8.23;;
20669;SDS011;10494;50.868;4.180;2023-09-07T01:49:13;16.73;;;8.30;;
20669;SDS011;10494;50.868;4.180;2023-09-07T01:51:38;12.43;;;7.55;;
20669;SDS011;10494;50.868;4.180;2023-09-07T01:54:04;14.48;;;7.75;;
20669;SDS011;10494;50.868;4.180;2023-09-07T01:56:30;14.48;;;7.78;;
20669;SDS011;10494;50.868;4.180;2023-09-07T01:58:56;14.63;;;7.57;;
20669;SDS011;10494;50.868;4.180;2023-09-07T02:03:51;11.75;;;7.85;;
20669;SDS011;10494;50.868;4.180;2023-09-07T02:06:17;12.02;;;8.50;;
20669;SDS011;10494;50.868;4.180;2023-09-07T02:08:44;14.35;;;8.02;;
20669;SDS011;10494;50.868;4.180;2023-09-07T02:11:10;11.48;;;8.25;;
20669;SDS011;10494;50.868;4.180;2023-09-07T02:13:36;11.43;;;7.05;;
20669;SDS011;10494;50.868;4.180;2023-09-07T02:16:05;12.00;;;8.38;;
20669;SDS011;10494;50.868;4.180;2023-09-07T02:18:33;12.88;;;7.63;;
20669;SDS011;10494;50.868;4.180;2023-09-07T02:21:01;14.95;;;7.05;;
20669;SDS011;10494;50.868;4.180;2023-09-07T02:23:30;12.07;;;7.28;;
20669;SDS011;10494;50.868;4.180;2023-09-07T02:25:59;13.30;;;7.85;;
20669;SDS011;10494;50.868;4.180;2023-09-07T02:28:25;12.27;;;7.70;;
20669;SDS011;10494;50.868;4.180;2023-09-07T02:30:54;15.93;;;8.48;;
20669;SDS011;10494;50.868;4.180;2023-09-07T02:33:19;15.85;;;8.23;;
20669;SDS011;10494;50.868;4.180;2023-09-07T02:35:47;16.75;;;8.02;;
20669;SDS011;10494;50.868;4.180;2023-09-07T02:38:14;16.10;;;8.57;;
20669;SDS011;10494;50.868;4.180;2023-09-07T02:40:40;12.40;;;7.78;;
20669;SDS011;10494;50.868;4.180;2023-09-07T02:43:07;12.25;;;6.47;;
20669;SDS011;10494;50.868;4.180;2023-09-07T02:45:33;11.00;;;7.72;;
20669;SDS011;10494;50.868;4.180;2023-09-07T02:47:59;8.82;;;6.40;;
20669;SDS011;10494;50.868;4.180;2023-09-07T02:50:24;11.40;;;7.43;;
20669;SDS011;10494;50.868;4.180;2023-09-07T02:52:50;10.68;;;7.18;;
20669;SDS011;10494;50.868;4.180;2023-09-07T02:55:16;13.38;;;7.65;;
20669;SDS011;10494;50.868;4.180;2023-09-07T02:57:41;11.48;;;6.57;;
20669;SDS011;10494;50.868;4.180;2023-09-07T03:00:07;9.80;;;7.22;;
20669;SDS011;10494;50.868;4.180;2023-09-07T03:02:35;8.20;;;6.85;;
20669;SDS011;10494;50.868;4.180;2023-09-07T03:05:01;10.95;;;7.32;;
20669;SDS011;10494;50.868;4.180;2023-09-07T03:07:33;10.60;;;7.35;;
20669;SDS011;10494;50.868;4.180;2023-09-07T03:09:59;14.77;;;7.45;;
20669;SDS011;10494;50.868;4.180;2023-09-07T03:12:25;9.88;;;7.47;;
20669;SDS011;10494;50.868;4.180;2023-09-07T03:14:51;15.52;;;8.32;;
20669;SDS011;10494;50.868;4.180;2023-09-07T03:17:16;11.73;;;8.00;;
20669;SDS011;10494;50.868;4.180;2023-09-07T03:19:42;11.68;;;7.50;;
20669;SDS011;10494;50.868;4.180;2023-09-07T03:22:08;11.50;;;7.53;;
20669;SDS011;10494;50.868;4.180;2023-09-07T03:24:35;10.23;;;6.85;;
20669;SDS011;10494;50.868;4.180;2023-09-07T03:27:00;12.60;;;8.30;;
20669;SDS011;10494;50.868;4.180;2023-09-07T03:29:26;14.73;;;8.10;;
20669;SDS011;10494;50.868;4.180;2023-09-07T03:31:54;10.43;;;7.38;;
20669;SDS011;10494;50.868;4.180;2023-09-07T03:34:20;13.02;;;7.80;;
20669;SDS011;10494;50.868;4.180;2023-09-07T03:36:46;11.52;;;7.45;;
20669;SDS011;10494;50.868;4.180;2023-09-07T03:39:11;11.30;;;7.70;;
20669;SDS011;10494;50.868;4.180;2023-09-07T03:41:37;9.65;;;7.07;;
20669;SDS011;10494;50.868;4.180;2023-09-07T03:44:03;12.73;;;7.45;;
20669;SDS011;10494;50.868;4.180;2023-09-07T03:46:28;11.07;;;8.00;;
20669;SDS011;10494;50.868;4.180;2023-09-07T03:48:54;12.52;;;8.05;;
20669;SDS011;10494;50.868;4.180;2023-09-07T03:51:19;13.55;;;7.60;;
20669;SDS011;10494;50.868;4.180;2023-09-07T03:53:45;11.73;;;8.65;;
20669;SDS011;10494;50.868;4.180;2023-09-07T03:56:11;10.85;;;7.60;;
20669;SDS011;10494;50.868;4.180;2023-09-07T03:58:36;12.07;;;7.38;;
20669;SDS011;10494;50.868;4.180;2023-09-07T04:01:02;12.15;;;8.00;;
20669;SDS011;10494;50.868;4.180;2023-09-07T04:03:28;13.35;;;7.72;;
20669;SDS011;10494;50.868;4.180;2023-09-07T04:05:53;14.07;;;8.57;;
20669;SDS011;10494;50.868;4.180;2023-09-07T04:08:19;12.80;;;7.82;;
20669;SDS011;10494;50.868;4.180;2023-09-07T04:10:45;14.80;;;7.90;;
20669;SDS011;10494;50.868;4.180;2023-09-07T04:13:10;14.18;;;8.25;;
20669;SDS011;10494;50.868;4.180;2023-09-07T04:15:43;12.82;;;7.72;;
20669;SDS011;10494;50.868;4.180;2023-09-07T04:18:10;13.73;;;7.80;;
20669;SDS011;10494;50.868;4.180;2023-09-07T04:20:38;11.43;;;7.40;;
20669;SDS011;10494;50.868;4.180;2023-09-07T04:23:04;13.73;;;7.88;;
20669;SDS011;10494;50.868;4.180;2023-09-07T04:25:30;10.38;;;7.70;;
20669;SDS011;10494;50.868;4.180;2023-09-07T04:27:57;11.13;;;6.82;;
20669;SDS011;10494;50.868;4.180;2023-09-07T04:30:23;14.10;;;7.25;;
20669;SDS011;10494;50.868;4.180;2023-09-07T04:32:49;12.02;;;7.22;;
20669;SDS011;10494;50.868;4.180;2023-09-07T04:35:15;10.73;;;7.30;;
20669;SDS011;10494;50.868;4.180;2023-09-07T04:37:44;10.73;;;7.07;;
20669;SDS011;10494;50.868;4.180;2023-09-07T04:40:10;11.32;;;7.05;;
20669;SDS011;10494;50.868;4.180;2023-09-07T04:42:36;10.55;;;6.88;;
20669;SDS011;10494;50.868;4.180;2023-09-07T04:45:05;10.43;;;7.28;;
20669;SDS011;10494;50.868;4.180;2023-09-07T04:47:31;12.18;;;7.65;;
20669;SDS011;10494;50.868;4.180;2023-09-07T04:49:57;9.85;;;7.30;;
20669;SDS011;10494;50.868;4.180;2023-09-07T04:52:23;9.77;;;7.25;;
20669;SDS011;10494;50.868;4.180;2023-09-07T04:54:49;11.57;;;7.20;;
20669;SDS011;10494;50.868;4.180;2023-09-07T04:57:17;14.20;;;7.90;;
20669;SDS011;10494;50.868;4.180;2023-09-07T04:59:43;11.45;;;7.20;;
20669;SDS011;10494;50.868;4.180;2023-09-07T05:02:09;9.40;;;7.38;;
20669;SDS011;10494;50.868;4.180;2023-09-07T05:04:34;10.52;;;7.28;;
20669;SDS011;10494;50.868;4.180;2023-09-07T05:07:00;12.07;;;7.65;;
20669;SDS011;10494;50.868;4.180;2023-09-07T05:09:26;9.88;;;7.25;;
20669;SDS011;10494;50.868;4.180;2023-09-07T05:11:54;12.38;;;7.90;;
20669;SDS011;10494;50.868;4.180;2023-09-07T05:14:19;12.50;;;7.50;;
20669;SDS011;10494;50.868;4.180;2023-09-07T05:16:45;11.13;;;6.90;;
20669;SDS011;10494;50.868;4.180;2023-09-07T05:19:11;12.00;;;7.75;;
20669;SDS011;10494;50.868;4.180;2023-09-07T05:21:36;15.07;;;8.15;;
20669;SDS011;10494;50.868;4.180;2023-09-07T05:24:02;9.77;;;7.07;;
20669;SDS011;10494;50.868;4.180;2023-09-07T05:26:28;13.95;;;7.80;;
20669;SDS011;10494;50.868;4.180;2023-09-07T05:28:54;13.75;;;7.88;;
20669;SDS011;10494;50.868;4.180;2023-09-07T05:31:20;14.88;;;8.23;;
20669;SDS011;10494;50.868;4.180;2023-09-07T05:33:45;10.85;;;7.18;;
20669;SDS011;10494;50.868;4.180;2023-09-07T05:36:11;10.18;;;6.88;;
20669;SDS011;10494;50.868;4.180;2023-09-07T05:38:36;12.57;;;6.80;;
20669;SDS011;10494;50.868;4.180;2023-09-07T05:41:02;10.63;;;6.78;;
20669;SDS011;10494;50.868;4.180;2023-09-07T05:43:28;15.15;;;7.28;;
20669;SDS011;10494;50.868;4.180;2023-09-07T05:45:54;10.50;;;7.40;;
20669;SDS011;10494;50.868;4.180;2023-09-07T05:48:20;11.43;;;7.10;;
20669;SDS011;10494;50.868;4.180;2023-09-07T05:50:45;10.30;;;7.07;;
20669;SDS011;10494;50.868;4.180;2023-09-07T05:53:11;10.93;;;7.13;;
20669;SDS011;10494;50.868;4.180;2023-09-07T05:55:37;13.40;;;7.40;;
20669;SDS011;10494;50.868;4.180;2023-09-07T05:58:06;15.57;;;7.13;;
20669;SDS011;10494;50.868;4.180;2023-09-07T06:00:33;13.63;;;7.22;;
20669;SDS011;10494;50.868;4.180;2023-09-07T06:03:00;17.63;;;7.85;;
20669;SDS011;10494;50.868;4.180;2023-09-07T06:05:26;13.23;;;7.78;;
20669;SDS011;10494;50.868;4.180;2023-09-07T06:07:52;13.35;;;7.50;;
20669;SDS011;10494;50.868;4.180;2023-09-07T06:10:18;8.48;;;6.88;;
20669;SDS011;10494;50.868;4.180;2023-09-07T06:12:44;14.60;;;7.88;;
20669;SDS011;10494;50.868;4.180;2023-09-07T06:15:10;12.13;;;7.00;;
20669;SDS011;10494;50.868;4.180;2023-09-07T06:17:36;11.02;;;7.30;;
20669;SDS011;10494;50.868;4.180;2023-09-07T06:20:01;15.18;;;7.13;;
20669;SDS011;10494;50.868;4.180;2023-09-07T06:22:28;11.25;;;7.78;;
20669;SDS011;10494;50.868;4.180;2023-09-07T06:24:53;12.75;;;7.72;;
20669;SDS011;10494;50.868;4.180;2023-09-07T06:27:19;11.25;;;8.00;;
20669;SDS011;10494;50.868;4.180;2023-09-07T06:29:45;15.35;;;8.30;;
20669;SDS011;10494;50.868;4.180;2023-09-07T06:32:11;15.55;;;8.85;;
20669;SDS011;10494;50.868;4.180;2023-09-07T06:34:37;13.93;;;8.93;;
20669;SDS011;10494;50.868;4.180;2023-09-07T06:37:02;15.70;;;8.85;;
20669;SDS011;10494;50.868;4.180;2023-09-07T06:39:28;14.90;;;8.93;;
20669;SDS011;10494;50.868;4.180;2023-09-07T06:41:54;17.40;;;10.02;;
20669;SDS011;10494;50.868;4.180;2023-09-07T06:44:19;14.98;;;9.98;;
20669;SDS011;10494;50.868;4.180;2023-09-07T06:46:45;14.40;;;9.85;;
20669;SDS011;10494;50.868;4.180;2023-09-07T06:49:10;14.60;;;9.88;;
20669;SDS011;10494;50.868;4.180;2023-09-07T06:51:37;18.88;;;9.75;;
20669;SDS011;10494;50.868;4.180;2023-09-07T06:54:02;17.27;;;9.90;;
20669;SDS011;10494;50.868;4.180;2023-09-07T06:56:28;19.30;;;9.23;;
20669;SDS011;10494;50.868;4.180;2023-09-07T06:58:57;18.40;;;9.93;;
20669;SDS011;10494;50.868;4.180;2023-09-07T07:01:22;17.90;;;9.52;;
20669;SDS011;10494;50.868;4.180;2023-09-07T07:03:49;15.02;;;9.20;;
20669;SDS011;10494;50.868;4.180;2023-09-07T07:06:14;12.27;;;8.50;;
20669;SDS011;10494;50.868;4.180;2023-09-07T07:08:40;15.18;;;8.90;;
20669;SDS011;10494;50.868;4.180;2023-09-07T07:11:05;12.25;;;8.30;;
20669;SDS011;10494;50.868;4.180;2023-09-07T07:13:31;13.80;;;8.38;;
20669;SDS011;10494;50.868;4.180;2023-09-07T07:15:57;15.30;;;8.23;;
20669;SDS011;10494;50.868;4.180;2023-09-07T07:18:22;13.68;;;8.65;;
20669;SDS011;10494;50.868;4.180;2023-09-07T07:20:48;13.52;;;7.88;;
20669;SDS011;10494;50.868;4.180;2023-09-07T07:23:15;16.52;;;8.35;;
20669;SDS011;10494;50.868;4.180;2023-09-07T07:25:41;12.38;;;7.80;;
20669;SDS011;10494;50.868;4.180;2023-09-07T07:28:07;12.20;;;7.57;;
20669;SDS011;10494;50.868;4.180;2023-09-07T07:30:33;13.30;;;6.95;;
20669;SDS011;10494;50.868;4.180;2023-09-07T07:33:01;11.43;;;7.40;;
20669;SDS011;10494;50.868;4.180;2023-09-07T07:35:28;17.52;;;7.00;;
20669;SDS011;10494;50.868;4.180;2023-09-07T07:37:54;10.77;;;5.70;;
20669;SDS011;10494;50.868;4.180;2023-09-07T07:40:20;11.13;;;6.15;;
20669;SDS011;10494;50.868;4.180;2023-09-07T07:42:46;8.32;;;5.63;;
20669;SDS011;10494;50.868;4.180;2023-09-07T07:45:12;12.77;;;5.60;;
20669;SDS011;10494;50.868;4.180;2023-09-07T07:47:39;12.52;;;5.82;;
20669;SDS011;10494;50.868;4.180;2023-09-07T07:50:06;9.80;;;5.50;;
20669;SDS011;10494;50.868;4.180;2023-09-07T07:52:32;9.80;;;5.35;;
20669;SDS011;10494;50.868;4.180;2023-09-07T07:54:57;11.82;;;5.43;;
20669;SDS011;10494;50.868;4.180;2023-09-07T07:57:23;13.27;;;5.07;;
20669;SDS011;10494;50.868;4.180;2023-09-07T07:59:49;11.73;;;5.47;;
20669;SDS011;10494;50.868;4.180;2023-09-07T08:02:14;7.35;;;4.95;;
20669;SDS011;10494;50.868;4.180;2023-09-07T08:04:41;8.70;;;4.80;;
20669;SDS011;10494;50.868;4.180;2023-09-07T08:07:06;6.55;;;5.03;;
20669;SDS011;10494;50.868;4.180;2023-09-07T08:09:33;8.70;;;5.35;;
20669;SDS011;10494;50.868;4.180;2023-09-07T08:12:00;11.70;;;4.88;;
20669;SDS011;10494;50.868;4.180;2023-09-07T08:14:29;16.08;;;5.57;;
20669;SDS011;10494;50.868;4.180;2023-09-07T08:16:56;8.85;;;4.63;;
20669;SDS011;10494;50.868;4.180;2023-09-07T08:19:22;8.73;;;4.50;;
20669;SDS011;10494;50.868;4.180;2023-09-07T08:21:48;9.20;;;4.90;;
20669;SDS011;10494;50.868;4.180;2023-09-07T08:24:14;9.88;;;4.72;;
20669;SDS011;10494;50.868;4.180;2023-09-07T08:26:39;7.97;;;4.68;;
20669;SDS011;10494;50.868;4.180;2023-09-07T08:29:05;7.20;;;4.65;;
20669;SDS011;10494;50.868;4.180;2023-09-07T08:31:32;10.15;;;4.45;;
20669;SDS011;10494;50.868;4.180;2023-09-07T08:34:03;12.38;;;4.80;;
20669;SDS011;10494;50.868;4.180;2023-09-07T08:36:31;8.10;;;4.38;;
20669;SDS011;10494;50.868;4.180;2023-09-07T08:38:59;11.02;;;4.40;;
20669;SDS011;10494;50.868;4.180;2023-09-07T08:41:31;9.15;;;4.45;;
20669;SDS011;10494;50.868;4.180;2023-09-07T08:44:02;13.63;;;5.03;;
20669;SDS011;10494;50.868;4.180;2023-09-07T08:46:31;9.70;;;4.55;;
20669;SDS011;10494;50.868;4.180;2023-09-07T08:48:59;7.07;;;4.03;;
20669;SDS011;10494;50.868;4.180;2023-09-07T08:51:29;7.78;;;4.70;;
20669;SDS011;10494;50.868;4.180;2023-09-07T08:53:54;5.88;;;4.45;;
20669;SDS011;10494;50.868;4.180;2023-09-07T08:56:21;6.10;;;3.58;;
20669;SDS011;10494;50.868;4.180;2023-09-07T08:58:47;6.38;;;4.20;;
20669;SDS011;10494;50.868;4.180;2023-09-07T09:01:14;6.13;;;3.92;;
20669;SDS011;10494;50.868;4.180;2023-09-07T09:03:43;7.72;;;3.17;;
20669;SDS011;10494;50.868;4.180;2023-09-07T09:06:11;7.15;;;3.20;;
20669;SDS011;10494;50.868;4.180;2023-09-07T09:11:14;4.15;;;3.15;;
20669;SDS011;10494;50.868;4.180;2023-09-07T09:13:41;6.00;;;3.30;;
20669;SDS011;10494;50.868;4.180;2023-09-07T09:16:08;4.70;;;3.17;;
20669;SDS011;10494;50.868;4.180;2023-09-07T09:18:34;5.03;;;3.10;;
20669;SDS011;10494;50.868;4.180;2023-09-07T09:21:00;4.65;;;3.25;;
20669;SDS011;10494;50.868;4.180;2023-09-07T09:23:32;8.93;;;3.38;;
20669;SDS011;10494;50.868;4.180;2023-09-07T09:26:02;4.53;;;2.88;;
20669;SDS011;10494;50.868;4.180;2023-09-07T09:28:33;5.85;;;2.80;;
20669;SDS011;10494;50.868;4.180;2023-09-07T09:31:00;9.23;;;2.97;;
20669;SDS011;10494;50.868;4.180;2023-09-07T09:33:27;5.50;;;3.22;;
20669;SDS011;10494;50.868;4.180;2023-09-07T09:35:56;5.65;;;3.28;;
20669;SDS011;10494;50.868;4.180;2023-09-07T09:38:22;6.15;;;3.08;;
20669;SDS011;10494;50.868;4.180;2023-09-07T09:40:49;6.55;;;3.08;;
20669;SDS011;10494;50.868;4.180;2023-09-07T09:43:15;8.63;;;3.50;;
20669;SDS011;10494;50.868;4.180;2023-09-07T09:45:41;4.97;;;2.90;;
20669;SDS011;10494;50.868;4.180;2023-09-07T09:48:07;8.75;;;3.30;;
20669;SDS011;10494;50.868;4.180;2023-09-07T09:50:33;5.25;;;2.88;;
20669;SDS011;10494;50.868;4.180;2023-09-07T09:53:06;7.93;;;3.33;;
20669;SDS011;10494;50.868;4.180;2023-09-07T09:55:32;4.97;;;3.13;;
20669;SDS011;10494;50.868;4.180;2023-09-07T09:57:58;3.90;;;2.78;;
20669;SDS011;10494;50.868;4.180;2023-09-07T10:00:24;4.03;;;3.17;;
20669;SDS011;10494;50.868;4.180;2023-09-07T10:05:37;7.47;;;3.50;;
20669;SDS011;10494;50.868;4.180;2023-09-07T10:08:07;4.45;;;3.10;;
20669;SDS011;10494;50.868;4.180;2023-09-07T10:10:35;4.55;;;3.40;;
20669;SDS011;10494;50.868;4.180;2023-09-07T10:13:01;4.93;;;3.60;;
20669;SDS011;10494;50.868;4.180;2023-09-07T10:15:28;6.68;;;3.55;;
20669;SDS011;10494;50.868;4.180;2023-09-07T10:18:08;7.13;;;3.47;;
20669;SDS011;10494;50.868;4.180;2023-09-07T10:20:49;5.07;;;3.50;;
20669;SDS011;10494;50.868;4.180;2023-09-07T10:23:16;4.03;;;3.22;;
20669;SDS011;10494;50.868;4.180;2023-09-07T10:25:42;5.63;;;3.42;;
20669;SDS011;10494;50.868;4.180;2023-09-07T10:28:23;6.43;;;3.72;;
20669;SDS011;10494;50.868;4.180;2023-09-07T10:31:02;4.88;;;3.15;;
20669;SDS011;10494;50.868;4.180;2023-09-07T10:33:33;7.15;;;3.33;;
20669;SDS011;10494;50.868;4.180;2023-09-07T10:35:59;6.05;;;3.67;;
20669;SDS011;10494;50.868;4.180;2023-09-07T10:38:26;6.13;;;3.58;;
20669;SDS011;10494;50.868;4.180;2023-09-07T10:40:56;5.85;;;3.08;;
20669;SDS011;10494;50.868;4.180;2023-09-07T10:43:26;6.78;;;3.53;;
20669;SDS011;10494;50.868;4.180;2023-09-07T10:45:53;7.50;;;3.92;;
20669;SDS011;10494;50.868;4.180;2023-09-07T10:48:21;6.57;;;3.70;;
20669;SDS011;10494;50.868;4.180;2023-09-07T10:50:47;6.88;;;3.83;;
20669;SDS011;10494;50.868;4.180;2023-09-07T10:53:13;5.70;;;3.40;;
20669;SDS011;10494;50.868;4.180;2023-09-07T10:55:40;5.60;;;3.67;;
20669;SDS011;10494;50.868;4.180;2023-09-07T10:58:08;7.78;;;3.28;;
20669;SDS011;10494;50.868;4.180;2023-09-07T11:00:35;6.43;;;3.83;;
20669;SDS011;10494;50.868;4.180;2023-09-07T11:03:08;5.28;;;3.50;;
20669;SDS011;10494;50.868;4.180;2023-09-07T11:05:35;10.52;;;3.70;;
20669;SDS011;10494;50.868;4.180;2023-09-07T11:08:03;6.65;;;3.90;;
20669;SDS011;10494;50.868;4.180;2023-09-07T11:10:31;5.80;;;3.75;;
20669;SDS011;10494;50.868;4.180;2023-09-07T11:13:02;5.55;;;3.50;;
20669;SDS011;10494;50.868;4.180;2023-09-07T11:15:32;8.05;;;4.00;;
20669;SDS011;10494;50.868;4.180;2023-09-07T11:18:07;6.32;;;4.03;;
20669;SDS011;10494;50.868;4.180;2023-09-07T11:20:37;6.97;;;3.92;;
20669;SDS011;10494;50.868;4.180;2023-09-07T11:23:04;6.45;;;4.07;;
20669;SDS011;10494;50.868;4.180;2023-09-07T11:25:35;7.45;;;3.72;;
20669;SDS011;10494;50.868;4.180;2023-09-07T11:28:02;6.90;;;3.97;;
20669;SDS011;10494;50.868;4.180;2023-09-07T11:30:29;9.15;;;4.30;;
20669;SDS011;10494;50.868;4.180;2023-09-07T11:35:27;9.63;;;4.28;;
20669;SDS011;10494;50.868;4.180;2023-09-07T11:37:53;6.28;;;4.00;;
20669;SDS011;10494;50.868;4.180;2023-09-07T11:40:19;10.73;;;4.40;;
20669;SDS011;10494;50.868;4.180;2023-09-07T11:42:44;4.63;;;4.03;;
20669;SDS011;10494;50.868;4.180;2023-09-07T11:45:10;5.85;;;4.13;;
20669;SDS011;10494;50.868;4.180;2023-09-07T11:47:38;9.43;;;4.50;;
20669;SDS011;10494;50.868;4.180;2023-09-07T11:50:05;6.70;;;4.50;;
20669;SDS011;10494;50.868;4.180;2023-09-07T11:52:31;10.23;;;3.97;;
20669;SDS011;10494;50.868;4.180;2023-09-07T11:54:57;8.20;;;4.22;;
20669;SDS011;10494;50.868;4.180;2023-09-07T11:57:23;8.13;;;3.97;;
20669;SDS011;10494;50.868;4.180;2023-09-07T11:59:49;5.45;;;3.80;;
20669;SDS011;10494;50.868;4.180;2023-09-07T12:02:15;11.85;;;3.92;;
20669;SDS011;10494;50.868;4.180;2023-09-07T12:04:42;5.38;;;3.85;;
20669;SDS011;10494;50.868;4.180;2023-09-07T12:07:09;5.30;;;3.88;;
20669;SDS011;10494;50.868;4.180;2023-09-07T12:09:35;7.30;;;3.97;;
20669;SDS011;10494;50.868;4.180;2023-09-07T12:12:00;4.50;;;3.75;;
20669;SDS011;10494;50.868;4.180;2023-09-07T12:14:26;8.50;;;3.95;;
20669;SDS011;10494;50.868;4.180;2023-09-07T12:16:51;5.95;;;3.70;;
20669;SDS011;10494;50.868;4.180;2023-09-07T12:19:17;9.00;;;3.78;;
20669;SDS011;10494;50.868;4.180;2023-09-07T12:21:43;5.03;;;3.35;;
20669;SDS011;10494;50.868;4.180;2023-09-07T12:24:08;4.75;;;3.28;;
20669;SDS011;10494;50.868;4.180;2023-09-07T12:26:34;6.90;;;3.88;;
20669;SDS011;10494;50.868;4.180;2023-09-07T12:29:00;10.63;;;3.63;;
20669;SDS011;10494;50.868;4.180;2023-09-07T12:31:26;5.63;;;3.60;;
20669;SDS011;10494;50.868;4.180;2023-09-07T12:33:51;7.95;;;3.53;;
20669;SDS011;10494;50.868;4.180;2023-09-07T12:36:17;5.63;;;3.45;;
20669;SDS011;10494;50.868;4.180;2023-09-07T12:38:43;7.32;;;3.45;;
20669;SDS011;10494;50.868;4.180;2023-09-07T12:41:09;4.88;;;3.00;;
20669;SDS011;10494;50.868;4.180;2023-09-07T12:43:34;6.93;;;2.95;;
20669;SDS011;10494;50.868;4.180;2023-09-07T12:46:01;4.53;;;2.90;;
20669;SDS011;10494;50.868;4.180;2023-09-07T12:48:26;8.38;;;3.15;;
20669;SDS011;10494;50.868;4.180;2023-09-07T12:50:53;5.00;;;3.25;;
20669;SDS011;10494;50.868;4.180;2023-09-07T12:53:19;4.82;;;3.00;;
20669;SDS011;10494;50.868;4.180;2023-09-07T12:55:45;7.03;;;3.25;;
20669;SDS011;10494;50.868;4.180;2023-09-07T12:58:10;6.60;;;3.28;;
20669;SDS011;10494;50.868;4.180;2023-09-07T13:00:36;7.53;;;3.78;;
20669;SDS011;10494;50.868;4.180;2023-09-07T13:03:02;5.35;;;3.25;;
20669;SDS011;10494;50.868;4.180;2023-09-07T13:05:28;7.75;;;3.50;;
20669;SDS011;10494;50.868;4.180;2023-09-07T13:07:54;5.05;;;3.45;;
20669;SDS011;10494;50.868;4.180;2023-09-07T13:10:19;6.22;;;3.22;;
20669;SDS011;10494;50.868;4.180;2023-09-07T13:12:45;5.93;;;3.58;;
20669;SDS011;10494;50.868;4.180;2023-09-07T13:15:10;8.35;;;3.35;;
20669;SDS011;10494;50.868;4.180;2023-09-07T13:17:36;7.53;;;3.40;;
20669;SDS011;10494;50.868;4.180;2023-09-07T13:20:02;5.05;;;3.08;;
20669;SDS011;10494;50.868;4.180;2023-09-07T13:22:28;8.75;;;3.20;;
20669;SDS011;10494;50.868;4.180;2023-09-07T13:24:54;5.70;;;3.60;;
20669;SDS011;10494;50.868;4.180;2023-09-07T13:27:19;7.78;;;3.72;;
20669;SDS011;10494;50.868;4.180;2023-09-07T13:29:45;6.63;;;3.10;;
20669;SDS011;10494;50.868;4.180;2023-09-07T13:32:10;6.43;;;3.30;;
20669;SDS011;10494;50.868;4.180;2023-09-07T13:34:36;7.38;;;3.40;;
20669;SDS011;10494;50.868;4.180;2023-09-07T13:37:02;13.05;;;3.50;;
20669;SDS011;10494;50.868;4.180;2023-09-07T13:39:27;8.48;;;3.35;;
20669;SDS011;10494;50.868;4.180;2023-09-07T13:41:53;7.40;;;3.40;;
20669;SDS011;10494;50.868;4.180;2023-09-07T13:44:19;4.72;;;3.33;;
20669;SDS011;10494;50.868;4.180;2023-09-07T13:46:44;6.43;;;3.55;;
20669;SDS011;10494;50.868;4.180;2023-09-07T13:49:10;7.35;;;3.50;;
20669;SDS011;10494;50.868;4.180;2023-09-07T13:51:36;6.13;;;3.33;;
20669;SDS011;10494;50.868;4.180;2023-09-07T13:54:04;5.25;;;3.33;;
20669;SDS011;10494;50.868;4.180;2023-09-07T13:56:31;3.58;;;2.75;;
20669;SDS011;10494;50.868;4.180;2023-09-07T13:58:58;4.63;;;3.13;;
20669;SDS011;10494;50.868;4.180;2023-09-07T14:01:24;4.47;;;3.17;;
20669;SDS011;10494;50.868;4.180;2023-09-07T14:03:49;5.38;;;3.10;;
20669;SDS011;10494;50.868;4.180;2023-09-07T14:06:16;4.82;;;2.85;;
20669;SDS011;10494;50.868;4.180;2023-09-07T14:08:43;5.63;;;3.22;;
20669;SDS011;10494;50.868;4.180;2023-09-07T14:11:09;7.10;;;3.60;;
20669;SDS011;10494;50.868;4.180;2023-09-07T14:13:35;12.07;;;3.78;;
20669;SDS011;10494;50.868;4.180;2023-09-07T14:16:01;5.03;;;3.15;;
20669;SDS011;10494;50.868;4.180;2023-09-07T14:18:27;6.35;;;3.15;;
20669;SDS011;10494;50.868;4.180;2023-09-07T14:20:53;9.82;;;3.80;;
20669;SDS011;10494;50.868;4.180;2023-09-07T14:23:22;5.57;;;2.90;;
20669;SDS011;10494;50.868;4.180;2023-09-07T14:25:50;5.53;;;3.53;;
20669;SDS011;10494;50.868;4.180;2023-09-07T14:28:19;8.57;;;3.80;;
20669;SDS011;10494;50.868;4.180;2023-09-07T14:30:45;7.18;;;3.88;;
20669;SDS011;10494;50.868;4.180;2023-09-07T14:33:11;7.53;;;3.80;;
20669;SDS011;10494;50.868;4.180;2023-09-07T14:35:37;4.90;;;3.38;;
20669;SDS011;10494;50.868;4.180;2023-09-07T14:38:02;8.93;;;3.58;;
20669;SDS011;10494;50.868;4.180;2023-09-07T14:40:28;5.38;;;3.63;;
20669;SDS011;10494;50.868;4.180;2023-09-07T14:42:54;6.00;;;3.80;;
20669;SDS011;10494;50.868;4.180;2023-09-07T14:45:22;6.22;;;3.53;;
20669;SDS011;10494;50.868;4.180;2023-09-07T14:47:49;7.75;;;3.47;;